createdAt,value
2022-10-10T00:00:02.377Z,5
2022-10-10T00:05:01.735Z,6
2022-10-10T00:10:02.235Z,5
2022-10-10T00:15:01.743Z,5
2022-10-10T00:20:02.323Z,5
2022-10-10T00:25:01.796Z,5
2022-10-10T00:30:02.270Z,6
2022-10-10T00:35:01.619Z,5
2022-10-10T00:40:02.040Z,5
2022-10-10T00:45:01.392Z,5
2022-10-10T00:50:01.764Z,5
2022-10-10T00:55:02.130Z,5
2022-10-10T01:00:01.486Z,5
2022-10-10T01:05:01.834Z,6
2022-10-10T01:10:02.212Z,5
2022-10-10T01:15:01.693Z,6
2022-10-10T01:20:02.254Z,5
2022-10-10T01:25:01.615Z,5
2022-10-10T01:30:01.958Z,6
2022-10-10T01:35:01.425Z,5
2022-10-10T01:40:01.811Z,4
2022-10-10T01:45:02.183Z,5
2022-10-10T01:50:03.155Z,7
2022-10-10T01:55:01.515Z,5
2022-10-10T02:00:01.912Z,5
2022-10-10T02:05:02.251Z,6
2022-10-10T02:10:01.626Z,4
2022-10-10T02:15:02.098Z,5
2022-10-10T02:20:01.502Z,4
2022-10-10T02:25:01.842Z,4
2022-10-10T02:30:02.314Z,5
2022-10-10T02:35:01.658Z,5
2022-10-10T02:40:02.025Z,4
2022-10-10T02:45:01.440Z,6
2022-10-10T02:50:01.914Z,6
2022-10-10T02:55:02.277Z,5
2022-10-10T03:00:01.623Z,5
2022-10-10T03:05:02.084Z,5
2022-10-10T03:10:01.473Z,4
2022-10-10T03:15:01.950Z,6
2022-10-10T03:20:01.379Z,6
2022-10-10T03:25:01.740Z,5
2022-10-10T03:30:02.088Z,5
2022-10-10T03:35:01.558Z,5
2022-10-10T03:40:01.957Z,6
2022-10-10T03:45:01.322Z,6
2022-10-10T03:50:01.686Z,6
2022-10-10T03:55:02.104Z,5
2022-10-10T04:00:01.466Z,6
2022-10-10T04:05:01.942Z,4
2022-10-10T04:10:01.318Z,4
2022-10-10T04:15:01.798Z,4
2022-10-10T04:20:02.333Z,5
2022-10-10T04:25:01.675Z,5
2022-10-10T04:30:02.097Z,6
2022-10-10T04:35:01.427Z,6
2022-10-10T04:40:01.937Z,6
2022-10-10T04:45:02.286Z,5
2022-10-10T04:50:01.762Z,5
2022-10-10T04:55:02.093Z,5
2022-10-10T05:00:01.446Z,5
2022-10-10T05:05:01.908Z,5
2022-10-10T05:10:02.420Z,6
2022-10-10T05:15:01.795Z,6
2022-10-10T05:20:02.346Z,5
2022-10-10T05:25:01.814Z,5
2022-10-10T05:30:02.170Z,5
2022-10-10T05:35:01.635Z,6
2022-10-10T05:40:02.020Z,5
2022-10-10T05:45:01.396Z,5
2022-10-10T05:50:01.869Z,5
2022-10-10T05:55:02.339Z,6
2022-10-10T06:00:01.822Z,4
2022-10-10T06:05:02.161Z,5
2022-10-10T06:10:01.698Z,6
2022-10-10T06:15:02.072Z,5
2022-10-10T06:20:01.613Z,5
2022-10-10T06:25:01.955Z,6
2022-10-10T06:30:01.435Z,6
2022-10-10T06:35:01.774Z,6
2022-10-10T06:40:02.271Z,6
2022-10-10T06:45:01.741Z,4
2022-10-10T06:50:02.206Z,6
2022-10-10T06:55:01.679Z,5
2022-10-10T07:00:02.083Z,5
2022-10-10T07:05:01.453Z,5
2022-10-10T07:10:01.913Z,5
2022-10-10T07:15:02.294Z,6
2022-10-10T07:20:01.848Z,6
2022-10-10T07:25:02.327Z,6
2022-10-10T07:30:01.800Z,7
2022-10-10T07:35:02.262Z,12
2022-10-10T07:40:01.655Z,7
2022-10-10T07:45:02.138Z,10
2022-10-10T07:50:01.626Z,7
2022-10-10T07:55:02.090Z,7
2022-10-10T08:00:01.479Z,9
2022-10-10T08:05:01.836Z,13
2022-10-10T08:10:02.258Z,15
2022-10-10T08:15:01.693Z,14
2022-10-10T08:20:02.299Z,11
2022-10-10T08:25:01.643Z,13
2022-10-10T08:30:02.116Z,11
2022-10-10T08:35:01.591Z,9
2022-10-10T08:40:02.104Z,9
2022-10-10T08:45:01.460Z,9
2022-10-10T08:50:01.802Z,9
2022-10-10T08:55:02.267Z,9
2022-10-10T09:00:01.773Z,7
2022-10-10T09:05:02.265Z,9
2022-10-10T09:10:01.769Z,9
2022-10-10T09:15:02.862Z,10
2022-10-10T09:20:01.564Z,9
2022-10-10T09:25:02.033Z,7
2022-10-10T09:30:01.390Z,9
2022-10-10T09:35:01.862Z,9
2022-10-10T09:40:02.365Z,12
2022-10-10T09:45:01.847Z,18
2022-10-10T09:55:01.774Z,34
2022-10-10T10:00:04.519Z,31
2022-10-10T10:05:02.334Z,31
2022-10-10T10:10:01.730Z,8
2022-10-10T10:15:02.223Z,16
2022-10-10T10:20:01.431Z,13
2022-10-10T10:25:01.909Z,10
2022-10-10T10:30:02.406Z,18
2022-10-10T10:35:01.904Z,13
2022-10-10T10:40:01.437Z,12
2022-10-10T10:45:01.943Z,30
2022-10-10T10:50:02.423Z,41
2022-10-10T10:55:01.781Z,23
2022-10-10T11:00:20.430Z,82
2022-10-10T11:05:18.246Z,40
2022-10-10T11:10:01.775Z,6
2022-10-10T11:15:02.254Z,6
2022-10-10T11:20:01.665Z,6
2022-10-10T11:25:02.060Z,6
2022-10-10T11:30:01.588Z,7
2022-10-10T11:35:01.938Z,5
2022-10-10T11:40:01.480Z,5
2022-10-10T11:45:01.957Z,6
2022-10-10T11:50:01.308Z,4
2022-10-10T11:55:01.792Z,4
2022-10-10T12:00:02.272Z,4
2022-10-10T12:05:01.754Z,5
2022-10-10T12:10:02.307Z,47
2022-10-10T12:15:01.809Z,47
2022-10-10T12:20:02.232Z,99
2022-10-10T12:25:01.703Z,3
2022-10-10T12:30:02.169Z,3
2022-10-10T12:35:01.526Z,3
2022-10-10T12:40:02.052Z,2
2022-10-10T12:45:01.557Z,2
2022-10-10T12:50:02.041Z,2
2022-10-10T12:55:06.353Z,3
2022-10-10T13:00:02.555Z,2
2022-10-10T13:05:02.098Z,3
2022-10-10T13:10:01.610Z,2
2022-10-10T13:15:02.096Z,3
2022-10-10T13:20:01.648Z,2
2022-10-10T13:25:01.985Z,1
2022-10-10T13:30:01.454Z,2
2022-10-10T13:35:01.922Z,1
2022-10-10T13:40:01.442Z,2
2022-10-10T13:45:01.833Z,1
2022-10-10T13:50:02.300Z,2
2022-10-10T13:55:01.768Z,1
2022-10-10T14:00:02.169Z,1
2022-10-10T14:05:01.635Z,1
2022-10-10T14:10:02.012Z,1
2022-10-10T14:15:01.379Z,2
2022-10-10T14:20:01.810Z,1
2022-10-10T14:25:02.274Z,1
2022-10-10T14:30:01.633Z,1
2022-10-10T14:35:02.095Z,1
2022-10-10T14:40:01.595Z,0
2022-10-10T14:45:02.098Z,2
2022-10-10T14:50:01.576Z,1
2022-10-10T14:55:02.049Z,1
2022-10-10T15:00:01.531Z,2
2022-10-10T15:05:01.877Z,0
2022-10-10T15:10:32.295Z,1
2022-10-10T15:15:01.985Z,1
2022-10-10T15:20:01.702Z,1
2022-10-10T15:25:02.317Z,0
2022-10-10T15:30:01.937Z,1
2022-10-10T15:35:01.356Z,1
2022-10-10T15:40:01.733Z,1
2022-10-10T15:45:02.211Z,1
2022-10-10T15:50:01.687Z,1
2022-10-10T15:55:02.155Z,0
2022-10-10T16:00:01.649Z,1
2022-10-10T16:05:02.146Z,0
2022-10-10T16:10:01.647Z,0
2022-10-10T16:15:06.751Z,0
2022-10-10T16:20:01.764Z,0
2022-10-10T16:25:22.454Z,0
2022-10-10T16:30:01.390Z,1
2022-10-10T16:35:01.721Z,0
2022-10-10T16:40:02.103Z,0
2022-10-10T16:45:01.577Z,0
2022-10-10T16:50:02.053Z,1
2022-10-10T16:55:01.530Z,1
2022-10-10T17:00:02.017Z,0
2022-10-10T17:05:01.481Z,0
2022-10-10T17:10:01.840Z,0
2022-10-10T17:15:02.319Z,0
2022-10-10T17:20:01.891Z,1
2022-10-10T17:25:02.381Z,1
2022-10-10T17:30:01.883Z,0
2022-10-10T17:35:02.238Z,0
2022-10-10T17:40:01.742Z,1
2022-10-10T17:45:02.211Z,1
2022-10-10T17:50:01.631Z,0
2022-10-10T17:55:01.983Z,0
2022-10-10T18:00:01.440Z,0
2022-10-10T18:05:01.978Z,1
2022-10-10T18:10:01.480Z,1
2022-10-10T18:15:01.970Z,1
2022-10-10T18:20:01.416Z,1
2022-10-10T18:25:01.762Z,1
2022-10-10T18:30:02.232Z,1
2022-10-10T18:35:01.707Z,2
2022-10-10T18:40:02.252Z,1
2022-10-10T18:45:01.742Z,0
2022-10-10T18:50:02.203Z,1
2022-10-10T18:55:01.556Z,1
2022-10-10T19:00:02.042Z,1
2022-10-10T19:05:01.420Z,1
2022-10-10T19:10:01.928Z,0
2022-10-10T19:15:02.411Z,0
2022-10-10T19:20:01.957Z,1
2022-10-10T19:25:01.459Z,1
2022-10-10T19:30:01.940Z,1
2022-10-10T19:35:02.418Z,0
2022-10-10T19:40:01.944Z,0
2022-10-10T19:45:02.439Z,1
2022-10-10T19:50:01.791Z,1
2022-10-10T19:55:02.286Z,98
2022-10-10T20:00:01.680Z,12
2022-10-10T20:05:02.169Z,11
2022-10-10T20:10:01.554Z,5
2022-10-10T20:15:01.981Z,7
2022-10-10T20:20:01.519Z,27
2022-10-10T20:25:02.033Z,12
2022-10-10T20:30:01.534Z,16
2022-10-10T20:35:02.006Z,7
2022-10-10T20:40:01.536Z,14
2022-10-10T20:45:02.030Z,12
2022-10-10T20:50:01.378Z,24
2022-10-10T20:55:01.706Z,79
2022-10-10T21:00:02.090Z,146
2022-10-10T21:05:01.774Z,215
2022-10-10T21:10:02.283Z,183
2022-10-10T21:15:01.774Z,117
2022-10-10T21:20:02.205Z,67
2022-10-10T21:25:01.559Z,107
2022-10-10T21:30:01.921Z,120
2022-10-10T21:35:02.382Z,46
2022-10-10T21:40:01.775Z,27
2022-10-10T21:45:02.132Z,5
2022-10-10T21:50:01.602Z,0
2022-10-10T21:55:01.933Z,0
2022-10-10T22:00:01.493Z,0
2022-10-10T22:05:01.933Z,0
2022-10-10T22:10:01.451Z,0
2022-10-10T22:15:01.866Z,0
2022-10-10T22:20:02.664Z,0
2022-10-10T22:25:02.163Z,0
2022-10-10T22:30:01.548Z,0
2022-10-10T22:35:02.051Z,0
2022-10-10T22:40:01.442Z,1
2022-10-10T22:45:01.937Z,0
2022-10-10T22:50:02.392Z,0
2022-10-10T22:55:01.859Z,0
2022-10-10T23:00:02.222Z,0
2022-10-10T23:05:01.709Z,0
2022-10-10T23:10:02.094Z,0
2022-10-10T23:15:01.447Z,0
2022-10-10T23:20:01.985Z,0
2022-10-10T23:25:01.464Z,0
2022-10-10T23:30:01.965Z,1
2022-10-10T23:35:01.316Z,0
2022-10-10T23:40:01.719Z,0
2022-10-10T23:45:02.190Z,0
2022-10-10T23:50:01.551Z,0
2022-10-10T23:55:01.892Z,0
